createdAt,value
2019-03-28T00:01:21.960Z,2.50
2019-03-28T00:03:50.121Z,3.13
2019-03-28T00:06:18.416Z,2.50
2019-03-28T00:08:46.766Z,3.00
2019-03-28T00:11:15.415Z,2.47
2019-03-28T00:13:43.683Z,2.43
2019-03-28T00:16:11.942Z,2.30
2019-03-28T00:18:40.207Z,2.40
2019-03-28T00:21:08.343Z,2.57
2019-03-28T00:24:03.485Z,2.97
2019-03-28T00:26:32.061Z,2.33
2019-03-28T00:29:00.648Z,2.40
2019-03-28T00:31:29.036Z,2.30
2019-03-28T00:33:57.543Z,2.30
2019-03-28T00:36:25.803Z,2.03
2019-03-28T00:38:54.025Z,2.47
2019-03-28T00:41:22.574Z,2.57
2019-03-28T00:43:51.151Z,2.87
2019-03-28T00:46:19.595Z,2.23
2019-03-28T00:48:48.018Z,2.63
2019-03-28T00:51:16.495Z,2.40
2019-03-28T00:53:44.747Z,2.43
2019-03-28T00:56:12.899Z,2.30
2019-03-28T00:58:41.195Z,2.57
2019-03-28T01:01:09.561Z,2.13
2019-03-28T01:03:44.024Z,2.20
2019-03-28T01:06:12.543Z,2.30
2019-03-28T01:08:40.793Z,2.30
2019-03-28T01:11:12.186Z,2.43
2019-03-28T01:13:40.659Z,2.13
2019-03-28T01:16:08.791Z,1.90
2019-03-28T01:18:37.144Z,1.90
2019-03-28T01:21:06.515Z,2.93
2019-03-28T01:23:34.871Z,2.37
2019-03-28T01:26:03.130Z,2.10
2019-03-28T01:28:31.487Z,2.37
2019-03-28T01:30:59.867Z,2.40
2019-03-28T01:33:28.343Z,1.80
2019-03-28T01:35:56.779Z,2.60
2019-03-28T01:38:25.190Z,2.20
2019-03-28T01:40:53.466Z,2.30
2019-03-28T01:43:21.566Z,2.00
2019-03-28T01:45:49.854Z,2.20
2019-03-28T01:48:18.203Z,2.40
2019-03-28T01:50:46.253Z,2.07
2019-03-28T01:53:14.740Z,2.00
2019-03-28T01:55:43.076Z,2.30
2019-03-28T01:58:11.539Z,2.07
2019-03-28T02:00:39.785Z,2.30
2019-03-28T02:03:07.912Z,1.90
2019-03-28T02:05:36.182Z,1.83
2019-03-28T02:08:04.384Z,1.90
2019-03-28T02:10:32.806Z,2.00
2019-03-28T02:13:01.302Z,1.90
2019-03-28T02:15:30.197Z,2.10
2019-03-28T02:17:58.792Z,2.03
2019-03-28T02:20:27.139Z,2.23
2019-03-28T02:22:55.547Z,1.87
2019-03-28T02:25:23.959Z,1.83
2019-03-28T02:27:52.067Z,1.60
2019-03-28T02:30:27.027Z,2.00
2019-03-28T02:32:55.476Z,2.23
2019-03-28T02:35:23.873Z,1.87
2019-03-28T02:37:52.250Z,1.53
2019-03-28T02:40:20.611Z,1.80
2019-03-28T02:42:48.759Z,1.77
2019-03-28T02:45:17.166Z,2.03
2019-03-28T02:47:45.433Z,1.60
2019-03-28T02:50:13.812Z,1.50
2019-03-28T02:52:41.939Z,1.80
2019-03-28T02:55:10.317Z,1.87
2019-03-28T02:57:43.706Z,1.77
2019-03-28T03:00:08.999Z,1.90
2019-03-28T03:02:37.236Z,1.83
2019-03-28T03:05:05.745Z,1.60
2019-03-28T03:07:34.033Z,1.47
2019-03-28T03:10:02.214Z,1.63
2019-03-28T03:12:30.483Z,1.93
2019-03-28T03:14:58.824Z,1.50
2019-03-28T03:17:27.053Z,1.63
2019-03-28T03:19:55.445Z,1.77
2019-03-28T03:22:23.717Z,1.70
2019-03-28T03:24:53.764Z,2.03
2019-03-28T03:27:22.148Z,1.60
2019-03-28T03:29:50.612Z,1.60
2019-03-28T03:32:18.985Z,1.97
2019-03-28T03:34:47.047Z,1.43
2019-03-28T03:37:15.377Z,1.33
2019-03-28T03:39:43.514Z,1.50
2019-03-28T03:42:11.664Z,1.60
2019-03-28T03:44:39.920Z,1.30
2019-03-28T03:47:08.053Z,1.60
2019-03-28T03:49:36.192Z,1.47
2019-03-28T03:52:04.276Z,1.57
2019-03-28T03:54:32.703Z,1.33
2019-03-28T03:57:00.960Z,1.47
2019-03-28T03:59:29.370Z,1.50
2019-03-28T04:01:57.779Z,2.30
2019-03-28T04:04:26.158Z,1.40
2019-03-28T04:06:54.659Z,1.57
2019-03-28T04:09:23.119Z,1.50
2019-03-28T04:11:51.231Z,2.00
2019-03-28T04:14:19.571Z,1.80
2019-03-28T04:16:47.733Z,1.43
2019-03-28T04:19:15.964Z,1.80
2019-03-28T04:21:44.123Z,1.83
2019-03-28T04:24:12.479Z,1.20
2019-03-28T04:26:42.923Z,1.50
2019-03-28T04:29:14.059Z,1.53
2019-03-28T04:31:42.209Z,1.60
2019-03-28T04:34:10.605Z,1.30
2019-03-28T04:36:38.991Z,1.47
2019-03-28T04:39:07.362Z,1.67
2019-03-28T04:41:35.762Z,1.43
2019-03-28T04:44:04.231Z,1.60
2019-03-28T04:46:35.370Z,1.50
2019-03-28T04:49:04.027Z,1.30
2019-03-28T04:51:32.275Z,1.40
2019-03-28T04:54:00.484Z,1.30
2019-03-28T04:56:28.903Z,1.20
2019-03-28T04:58:57.160Z,1.40
2019-03-28T05:01:25.528Z,1.40
2019-03-28T05:03:54.096Z,1.40
2019-03-28T05:06:22.703Z,1.13
2019-03-28T05:08:51.247Z,1.10
2019-03-28T05:11:19.613Z,1.30
2019-03-28T05:13:47.975Z,1.23
2019-03-28T05:16:16.108Z,1.23
2019-03-28T05:18:44.376Z,1.20
2019-03-28T05:21:12.560Z,1.20
2019-03-28T05:23:40.839Z,1.03
2019-03-28T05:26:12.319Z,1.33
2019-03-28T05:28:40.903Z,1.20
2019-03-28T06:50:07.828Z,1.10
2019-03-28T06:52:35.967Z,0.80
2019-03-28T06:55:04.282Z,0.83
2019-03-28T06:57:32.480Z,0.80
2019-03-28T07:00:00.812Z,0.90
2019-03-28T07:02:28.827Z,0.87
2019-03-28T07:04:57.096Z,1.03
2019-03-28T07:07:25.479Z,1.10
2019-03-28T07:09:56.343Z,0.80
2019-03-28T07:12:25.435Z,0.90
2019-03-28T07:14:54.301Z,0.87
2019-03-28T07:17:22.640Z,0.80
2019-03-28T07:19:51.172Z,0.70
2019-03-28T07:22:19.453Z,1.07
2019-03-28T07:24:47.775Z,0.93
2019-03-28T07:27:15.879Z,0.90
2019-03-28T07:29:50.768Z,0.80
2019-03-28T07:32:14.068Z,1.00
2019-03-28T07:34:43.931Z,0.90
2019-03-28T07:37:12.592Z,0.80
2019-03-28T07:39:40.836Z,0.70
2019-03-28T07:42:09.163Z,1.00
2019-03-28T07:44:37.740Z,0.80
2019-03-28T07:47:05.936Z,0.70
2019-03-28T07:49:37.357Z,0.67
2019-03-28T07:52:04.181Z,0.67
2019-03-28T07:54:32.515Z,0.80
2019-03-28T07:57:00.667Z,1.00
2019-03-28T07:59:29.010Z,1.10
2019-03-28T08:01:57.351Z,0.70
2019-03-28T08:04:25.484Z,0.80
2019-03-28T08:06:53.828Z,0.87
2019-03-28T08:09:21.947Z,0.80
2019-03-28T08:11:50.065Z,0.80
2019-03-28T08:14:18.326Z,1.50
2019-03-28T08:16:46.774Z,0.70
2019-03-28T08:19:14.899Z,0.90
2019-03-28T08:21:42.924Z,0.87
2019-03-28T08:24:11.256Z,1.13
2019-03-28T08:26:39.263Z,0.83
2019-03-28T08:29:07.512Z,0.80
2019-03-28T08:31:40.582Z,0.90
2019-03-28T08:34:07.468Z,0.83
2019-03-28T08:36:36.451Z,0.80
2019-03-28T08:39:05.733Z,0.83
2019-03-28T08:41:34.169Z,1.33
2019-03-28T08:44:02.596Z,0.90
2019-03-28T08:46:30.926Z,0.73
2019-03-28T08:48:58.972Z,0.90
2019-03-28T08:51:27.454Z,0.90
2019-03-28T08:53:55.728Z,0.57
2019-03-28T08:56:23.836Z,0.70
2019-03-28T08:58:51.972Z,0.90
2019-03-28T09:01:21.480Z,0.90
2019-03-28T09:03:49.970Z,0.90
2019-03-28T09:06:18.323Z,1.13
2019-03-28T09:08:46.638Z,0.77
2019-03-28T09:11:14.953Z,1.00
2019-03-28T09:13:43.362Z,0.70
2019-03-28T09:16:11.802Z,0.70
2019-03-28T09:18:40.156Z,0.77
2019-03-28T09:21:08.221Z,0.70
2019-03-28T09:23:36.528Z,0.87
2019-03-28T09:26:04.973Z,0.90
2019-03-28T09:28:33.115Z,0.90
2019-03-28T09:31:01.441Z,0.60
2019-03-28T09:33:30.068Z,0.70
2019-03-28T09:35:58.197Z,0.90
2019-03-28T09:38:26.528Z,0.80
2019-03-28T09:40:54.926Z,0.67
2019-03-28T09:43:23.084Z,0.63
2019-03-28T09:45:51.428Z,0.70
2019-03-28T09:48:19.567Z,0.63
2019-03-28T09:50:47.803Z,0.63
2019-03-28T09:53:16.254Z,0.60
2019-03-28T09:55:44.805Z,0.70
2019-03-28T09:58:12.980Z,0.73
2019-03-28T10:00:41.338Z,0.70
2019-03-28T10:03:09.817Z,0.60
2019-03-28T10:05:38.476Z,0.80
2019-03-28T10:08:06.852Z,0.60
2019-03-28T10:10:35.207Z,0.50
2019-03-28T10:13:03.529Z,0.70
2019-03-28T10:15:32.220Z,0.70
2019-03-28T10:18:00.628Z,0.70
2019-03-28T10:20:30.372Z,0.77
2019-03-28T10:22:58.612Z,0.60
2019-03-28T10:25:26.716Z,0.70
2019-03-28T10:27:55.059Z,0.80
2019-03-28T10:30:36.008Z,0.70
2019-03-28T10:33:04.247Z,0.80
2019-03-28T10:35:32.526Z,0.70
2019-03-28T10:38:00.876Z,0.93
2019-03-28T10:40:28.890Z,0.80
2019-03-28T10:42:57.007Z,0.90
2019-03-28T10:45:25.359Z,0.90
2019-03-28T10:47:53.903Z,0.83
2019-03-28T10:50:22.118Z,0.80
2019-03-28T10:52:50.248Z,0.87
2019-03-28T10:55:18.460Z,0.70
2019-03-28T10:57:46.604Z,0.80
2019-03-28T11:00:23.925Z,0.63
2019-03-28T11:02:44.921Z,0.90
2019-03-28T11:05:13.298Z,0.83
2019-03-28T11:07:41.432Z,0.73
2019-03-28T11:10:09.543Z,0.70
2019-03-28T11:12:37.868Z,0.83
2019-03-28T11:15:06.065Z,1.00
2019-03-28T11:17:34.335Z,0.80
2019-03-28T11:20:02.771Z,0.60
2019-03-28T11:22:31.095Z,0.80
2019-03-28T11:24:59.450Z,0.80
2019-03-28T11:27:27.868Z,0.90
2019-03-28T11:29:56.198Z,0.73
2019-03-28T11:32:24.615Z,0.83
2019-03-28T11:34:53.005Z,0.90
2019-03-28T11:37:26.437Z,0.70
2019-03-28T11:39:51.251Z,0.70
2019-03-28T11:42:19.729Z,0.70
2019-03-28T11:44:48.467Z,0.93
2019-03-28T11:47:16.504Z,0.90
2019-03-28T11:49:44.775Z,0.80
2019-03-28T11:52:13.131Z,0.77
2019-03-28T11:54:41.548Z,0.80
2019-03-28T11:57:09.875Z,0.70
2019-03-28T11:59:38.115Z,0.80
2019-03-28T12:02:19.097Z,0.63
2019-03-28T12:04:38.736Z,0.60
2019-03-28T12:07:06.821Z,0.93
2019-03-28T12:09:35.171Z,0.60
2019-03-28T12:12:03.481Z,0.60
2019-03-28T12:14:31.907Z,0.50
2019-03-28T12:17:00.347Z,0.80
2019-03-28T12:19:28.496Z,0.60
2019-03-28T12:21:56.739Z,0.73
2019-03-28T12:24:24.760Z,0.67
2019-03-28T12:26:52.904Z,0.70
2019-03-28T12:29:20.943Z,0.60
2019-03-28T12:31:49.088Z,0.60
2019-03-28T12:34:17.410Z,0.83
2019-03-28T12:36:45.538Z,0.60
2019-03-28T12:39:15.591Z,0.63
2019-03-28T12:41:43.784Z,0.60
2019-03-28T12:44:11.797Z,0.70
2019-03-28T12:46:39.964Z,0.60
2019-03-28T12:49:08.283Z,0.67
2019-03-28T12:51:36.424Z,0.80
2019-03-28T12:54:04.754Z,0.60
2019-03-28T12:56:33.105Z,0.47
2019-03-28T12:59:01.207Z,0.57
2019-03-28T13:01:29.240Z,0.50
2019-03-28T13:03:57.640Z,0.60
2019-03-28T13:06:25.665Z,0.50
2019-03-28T13:08:53.806Z,0.60
2019-03-28T13:11:21.908Z,0.70
2019-03-28T13:13:49.963Z,0.57
2019-03-28T13:16:18.024Z,0.50
2019-03-28T13:18:46.147Z,0.60
2019-03-28T13:21:14.454Z,0.60
2019-03-28T13:23:42.776Z,0.80
2019-03-28T13:26:11.195Z,0.93
2019-03-28T13:28:39.520Z,0.63
2019-03-28T13:31:07.952Z,0.80
2019-03-28T13:33:36.305Z,1.10
2019-03-28T13:36:04.327Z,0.60
2019-03-28T13:38:32.435Z,0.70
2019-03-28T13:41:00.783Z,0.60
2019-03-28T13:43:28.951Z,0.70
2019-03-28T13:45:57.017Z,0.70
2019-03-28T13:48:25.332Z,0.80
2019-03-28T13:50:54.865Z,0.57
2019-03-28T13:53:23.563Z,0.60
2019-03-28T13:55:52.272Z,0.80
2019-03-28T13:58:20.687Z,0.60
2019-03-28T14:00:49.008Z,0.60
2019-03-28T14:03:17.155Z,0.70
2019-03-28T14:05:45.491Z,0.60
2019-03-28T14:08:14.532Z,0.73
2019-03-28T14:10:42.822Z,0.50
2019-03-28T14:13:11.036Z,0.70
2019-03-28T14:15:39.404Z,0.60
2019-03-28T14:18:07.506Z,0.70
2019-03-28T14:20:35.563Z,0.90
2019-03-28T14:23:03.705Z,0.90
2019-03-28T14:25:31.963Z,0.60
2019-03-28T14:28:00.086Z,0.50
2019-03-28T14:30:28.351Z,0.60
2019-03-28T14:33:10.195Z,0.60
2019-03-28T14:35:26.917Z,0.70
2019-03-28T14:37:55.036Z,0.60
2019-03-28T14:40:23.351Z,0.70
2019-03-28T14:42:51.780Z,0.60
2019-03-28T14:45:19.884Z,0.60
2019-03-28T14:47:48.191Z,0.90
2019-03-28T14:50:18.464Z,0.70
2019-03-28T14:52:46.599Z,0.77
2019-03-28T14:55:14.932Z,0.70
2019-03-28T14:57:43.384Z,0.80
2019-03-28T15:00:15.648Z,0.60
2019-03-28T15:02:44.029Z,0.70
2019-03-28T15:05:12.157Z,0.70
2019-03-28T15:07:40.496Z,0.73
2019-03-28T15:10:08.915Z,0.63
2019-03-28T15:12:37.011Z,0.80
2019-03-28T15:15:05.395Z,0.60
2019-03-28T15:17:33.619Z,0.70
2019-03-28T15:20:01.732Z,0.63
2019-03-28T15:22:29.764Z,1.03
2019-03-28T15:24:58.187Z,0.80
2019-03-28T15:27:26.628Z,0.60
2019-03-28T15:29:54.951Z,0.80
2019-03-28T15:32:23.076Z,0.80
2019-03-28T15:34:51.419Z,0.60
2019-03-28T15:37:21.332Z,0.80
2019-03-28T15:39:49.780Z,0.80
2019-03-28T15:42:19.396Z,0.70
2019-03-28T15:44:47.650Z,0.80
2019-03-28T15:47:16.060Z,0.63
2019-03-28T15:49:44.375Z,1.00
2019-03-28T15:52:12.496Z,0.90
2019-03-28T15:54:41.576Z,0.70
2019-03-28T15:57:10.184Z,0.90
2019-03-28T15:59:38.503Z,0.90
2019-03-28T16:02:06.628Z,0.93
2019-03-28T16:04:34.960Z,0.70
2019-03-28T16:07:03.383Z,0.70
2019-03-28T16:09:31.522Z,0.60
2019-03-28T16:12:02.866Z,0.90
2019-03-28T16:14:30.071Z,0.73
2019-03-28T16:16:58.405Z,0.97
2019-03-28T16:19:26.751Z,1.00
2019-03-28T16:21:54.883Z,0.80
2019-03-28T16:24:22.922Z,0.73
2019-03-28T16:26:51.329Z,0.70
2019-03-28T16:29:19.451Z,0.60
2019-03-28T16:31:47.768Z,0.70
2019-03-28T16:34:15.787Z,0.77
2019-03-28T16:36:43.949Z,0.80
2019-03-28T16:39:11.968Z,0.80
2019-03-28T16:41:40.335Z,0.70
2019-03-28T16:44:08.807Z,0.70
2019-03-28T16:46:37.035Z,1.03
2019-03-28T16:49:05.472Z,0.80
2019-03-28T16:51:33.800Z,1.13
2019-03-28T16:54:01.988Z,0.87
2019-03-28T16:56:30.245Z,0.50
2019-03-28T16:58:58.649Z,0.70
2019-03-28T17:01:27.067Z,0.70
2019-03-28T17:03:55.180Z,0.80
2019-03-28T17:06:23.291Z,0.70
2019-03-28T17:08:51.623Z,0.80
2019-03-28T17:11:19.965Z,0.57
2019-03-28T17:13:48.091Z,0.50
2019-03-28T17:16:16.867Z,0.57
2019-03-28T17:18:45.516Z,0.80
2019-03-28T17:21:13.816Z,0.50
2019-03-28T17:23:42.430Z,0.70
2019-03-28T17:26:10.751Z,1.00
2019-03-28T17:28:38.867Z,0.50
2019-03-28T17:31:06.979Z,0.50
2019-03-28T17:33:35.291Z,0.60
2019-03-28T17:36:03.403Z,0.47
2019-03-28T17:38:31.727Z,0.57
2019-03-28T17:40:59.878Z,0.53
2019-03-28T17:43:27.987Z,0.50
2019-03-28T17:45:56.318Z,0.60
2019-03-28T17:48:24.356Z,0.50
2019-03-28T17:50:52.784Z,0.43
2019-03-28T17:53:23.871Z,0.50
2019-03-28T17:55:50.836Z,0.47
2019-03-28T17:58:19.102Z,0.70
2019-03-28T18:00:47.750Z,0.70
2019-03-28T18:03:16.166Z,0.63
2019-03-28T18:05:57.172Z,0.60
2019-03-28T18:08:33.814Z,0.87
2019-03-28T18:11:21.735Z,0.80
2019-03-28T18:13:50.015Z,0.73
2019-03-28T18:16:18.227Z,0.50
2019-03-28T18:18:46.670Z,0.70
2019-03-28T18:21:14.803Z,0.70
2019-03-28T18:23:43.144Z,0.50
2019-03-28T18:26:11.464Z,0.70
2019-03-28T18:28:39.588Z,0.93
2019-03-28T18:31:07.804Z,0.60
2019-03-28T18:33:36.620Z,0.50
2019-03-28T18:36:05.078Z,0.60
2019-03-28T18:38:33.404Z,0.50
2019-03-28T18:41:01.551Z,0.77
2019-03-28T18:43:29.779Z,0.77
2019-03-28T18:46:17.357Z,0.80
2019-03-28T18:48:45.424Z,0.60
2019-03-28T18:51:13.639Z,0.60
2019-03-28T18:53:41.768Z,0.60
2019-03-28T18:56:09.911Z,0.60
2019-03-28T18:58:38.235Z,0.70
2019-03-28T19:01:06.372Z,0.60
2019-03-28T19:03:34.763Z,0.60
2019-03-28T19:06:02.787Z,0.50
2019-03-28T19:08:30.820Z,0.47
2019-03-28T19:10:58.918Z,0.60
2019-03-28T19:13:27.238Z,0.43
2019-03-28T19:15:55.392Z,0.50
2019-03-28T19:18:23.718Z,0.40
2019-03-28T19:20:51.863Z,0.60
2019-03-28T19:23:19.891Z,0.60
2019-03-28T19:25:48.243Z,0.57
2019-03-28T19:28:28.213Z,0.40
2019-03-28T19:30:49.726Z,0.50
2019-03-28T19:33:17.993Z,0.50
2019-03-28T19:35:50.317Z,0.47
2019-03-28T19:38:18.745Z,0.50
2019-03-28T19:40:47.002Z,0.40
2019-03-28T19:43:20.953Z,0.43
2019-03-28T19:45:45.292Z,0.60
2019-03-28T19:48:13.612Z,0.40
2019-03-28T19:50:42.214Z,0.40
2019-03-28T19:53:11.924Z,0.40
2019-03-28T19:55:40.668Z,0.40
2019-03-28T19:58:09.011Z,0.50
2019-03-28T20:00:37.037Z,0.50
2019-03-28T20:03:05.485Z,0.50
2019-03-28T20:05:46.843Z,0.47
2019-03-28T20:08:14.806Z,0.30
2019-03-28T20:10:37.787Z,0.50
2019-03-28T20:13:05.818Z,0.33
2019-03-28T20:15:34.194Z,0.30
2019-03-28T20:18:02.480Z,0.30
2019-03-28T20:20:30.632Z,0.40
2019-03-28T20:22:58.864Z,0.40
2019-03-28T20:25:26.980Z,0.40
2019-03-28T20:27:55.123Z,0.33
2019-03-28T20:30:23.489Z,0.53
2019-03-28T20:32:51.810Z,0.40
2019-03-28T20:35:20.181Z,0.57
2019-03-28T20:37:48.516Z,0.30
2019-03-28T20:40:17.235Z,0.37
2019-03-28T20:42:45.340Z,0.40
2019-03-28T20:45:15.073Z,0.40
2019-03-28T20:47:43.287Z,0.40
2019-03-28T20:50:11.921Z,0.40
2019-03-28T20:52:40.078Z,0.30
2019-03-28T20:55:08.473Z,0.47
2019-03-28T20:57:37.783Z,0.30
2019-03-28T21:00:08.742Z,0.40
2019-03-28T21:02:37.203Z,0.30
2019-03-28T21:05:05.780Z,0.50
2019-03-28T21:07:34.015Z,0.43
2019-03-28T21:10:02.165Z,0.40
2019-03-28T21:12:31.044Z,0.40
2019-03-28T21:14:59.179Z,0.53
2019-03-28T21:17:27.508Z,0.73
2019-03-28T21:19:55.672Z,0.50
2019-03-28T21:22:23.920Z,0.40
2019-03-28T21:24:52.043Z,0.47
2019-03-28T21:27:20.832Z,0.50
2019-03-28T21:29:53.797Z,0.40
2019-03-28T21:32:22.012Z,0.40
2019-03-28T21:34:50.132Z,0.40
2019-03-28T21:37:18.323Z,0.30
2019-03-28T21:39:46.556Z,0.60
2019-03-28T21:42:14.991Z,0.30
2019-03-28T21:44:43.108Z,0.40
2019-03-28T21:47:11.500Z,0.53
2019-03-28T21:49:39.815Z,0.60
2019-03-28T21:52:07.876Z,0.40
2019-03-28T21:54:35.897Z,0.53
2019-03-28T21:57:04.111Z,0.50
2019-03-28T21:59:32.363Z,0.40
2019-03-28T22:02:00.430Z,0.60
2019-03-28T22:04:28.555Z,0.50
2019-03-28T22:06:56.672Z,0.40
2019-03-28T22:09:25.052Z,0.43
2019-03-28T22:11:53.445Z,0.50
2019-03-28T22:14:21.663Z,0.50
2019-03-28T22:16:52.901Z,0.50
2019-03-28T22:19:21.286Z,0.60
2019-03-28T22:21:49.481Z,0.40
2019-03-28T22:24:17.846Z,0.60
2019-03-28T22:26:48.233Z,0.30
2019-03-28T22:29:16.491Z,0.30
2019-03-28T22:31:44.886Z,0.40
2019-03-28T22:34:13.195Z,0.30
2019-03-28T22:36:41.540Z,0.50
2019-03-28T22:39:09.676Z,0.50
2019-03-28T22:41:38.151Z,0.40
2019-03-28T22:44:06.396Z,0.40
2019-03-28T22:46:36.161Z,0.47
2019-03-28T22:49:05.830Z,0.40
2019-03-28T22:51:34.064Z,0.60
2019-03-28T22:54:02.277Z,0.50
2019-03-28T22:56:30.722Z,0.40
2019-03-28T22:58:58.940Z,0.50
2019-03-28T23:01:27.157Z,0.50
2019-03-28T23:03:55.479Z,0.60
2019-03-28T23:06:23.583Z,0.40
2019-03-28T23:08:51.768Z,0.50
2019-03-28T23:11:20.093Z,0.60
2019-03-28T23:13:48.217Z,0.30
2019-03-28T23:16:16.347Z,0.40
2019-03-28T23:18:44.560Z,0.50
2019-03-28T23:21:12.699Z,0.40
2019-03-28T23:23:41.016Z,0.50
2019-03-28T23:26:09.255Z,0.40
2019-03-28T23:28:37.525Z,0.33
2019-03-28T23:31:05.827Z,0.50
2019-03-28T23:33:33.936Z,0.40
2019-03-28T23:36:21.434Z,0.43
2019-03-28T23:38:49.549Z,0.50
2019-03-28T23:41:18.016Z,0.70
2019-03-28T23:43:46.357Z,0.40
2019-03-28T23:46:14.927Z,0.60
2019-03-28T23:48:43.035Z,0.50
2019-03-28T23:51:11.212Z,0.53
2019-03-28T23:53:39.324Z,0.50
2019-03-28T23:56:07.555Z,0.50
2019-03-28T23:58:35.780Z,0.50
